sensor_id;sensor_type;location;lat;lon;timestamp;pressure;altitude;pressure_sealevel;temperature;humidity
35952;BME280;22035;51.406;16.194;2023-04-30T00:02:16;100243.67;;;31.15;22.11
35952;BME280;22035;51.406;16.194;2023-04-30T00:04:41;100242.46;;;31.09;22.14
35952;BME280;22035;51.406;16.194;2023-04-30T00:07:07;100243.82;;;31.05;22.19
35952;BME280;22035;51.406;16.194;2023-04-30T00:09:33;100243.31;;;31.14;22.11
35952;BME280;22035;51.406;16.194;2023-04-30T00:11:58;100244.03;;;31.10;22.09
35952;BME280;22035;51.406;16.194;2023-04-30T00:14:24;100241.72;;;31.05;22.17
35952;BME280;22035;51.406;16.194;2023-04-30T00:16:50;100240.77;;;31.15;22.04
35952;BME280;22035;51.406;16.194;2023-04-30T00:19:15;100241.90;;;31.12;22.11
35952;BME280;22035;51.406;16.194;2023-04-30T00:21:41;100240.24;;;31.10;22.17
35952;BME280;22035;51.406;16.194;2023-04-30T00:24:06;100240.56;;;31.11;22.11
35952;BME280;22035;51.406;16.194;2023-04-30T00:26:32;100238.20;;;31.14;22.08
35952;BME280;22035;51.406;16.194;2023-04-30T00:28:58;100241.05;;;31.11;22.08
35952;BME280;22035;51.406;16.194;2023-04-30T00:31:23;100241.30;;;31.11;22.09
35952;BME280;22035;51.406;16.194;2023-04-30T00:33:49;100239.35;;;31.05;22.11
35952;BME280;22035;51.406;16.194;2023-04-30T00:36:14;100242.36;;;31.19;22.00
35952;BME280;22035;51.406;16.194;2023-04-30T00:38:40;100244.28;;;31.12;22.07
35952;BME280;22035;51.406;16.194;2023-04-30T00:41:06;100249.67;;;31.15;22.03
35952;BME280;22035;51.406;16.194;2023-04-30T00:43:31;100250.50;;;31.10;22.04
35952;BME280;22035;51.406;16.194;2023-04-30T00:45:57;100249.92;;;31.08;22.07
35952;BME280;22035;51.406;16.194;2023-04-30T00:48:23;100249.76;;;31.06;22.12
35952;BME280;22035;51.406;16.194;2023-04-30T00:50:48;100251.88;;;31.07;22.10
35952;BME280;22035;51.406;16.194;2023-04-30T00:53:14;100254.81;;;31.08;22.08
35952;BME280;22035;51.406;16.194;2023-04-30T00:55:42;100255.65;;;31.07;22.08
35952;BME280;22035;51.406;16.194;2023-04-30T00:58:08;100256.46;;;31.08;22.07
35952;BME280;22035;51.406;16.194;2023-04-30T01:00:34;100256.95;;;31.05;22.08
35952;BME280;22035;51.406;16.194;2023-04-30T01:03:00;100259.90;;;31.08;22.04
35952;BME280;22035;51.406;16.194;2023-04-30T01:05:26;100261.74;;;31.07;22.04
35952;BME280;22035;51.406;16.194;2023-04-30T01:07:52;100263.19;;;31.09;21.99
35952;BME280;22035;51.406;16.194;2023-04-30T01:10:20;100266.98;;;31.03;22.10
35952;BME280;22035;51.406;16.194;2023-04-30T01:12:53;100268.05;;;31.07;22.02
35952;BME280;22035;51.406;16.194;2023-04-30T01:15:25;100270.85;;;31.08;22.01
35952;BME280;22035;51.406;16.194;2023-04-30T01:17:55;100271.94;;;31.08;21.99
35952;BME280;22035;51.406;16.194;2023-04-30T01:20:27;100273.14;;;30.97;22.10
35952;BME280;22035;51.406;16.194;2023-04-30T01:23:00;100274.93;;;31.08;22.03
35952;BME280;22035;51.406;16.194;2023-04-30T01:25:43;100274.72;;;31.05;22.05
35952;BME280;22035;51.406;16.194;2023-04-30T01:28:12;100276.14;;;31.07;21.95
35952;BME280;22035;51.406;16.194;2023-04-30T01:30:40;100278.36;;;31.06;22.00
35952;BME280;22035;51.406;16.194;2023-04-30T01:33:06;100276.01;;;31.02;22.03
35952;BME280;22035;51.406;16.194;2023-04-30T01:35:43;100279.93;;;31.06;21.99
35952;BME280;22035;51.406;16.194;2023-04-30T01:38:23;100282.54;;;31.02;22.00
35952;BME280;22035;51.406;16.194;2023-04-30T01:40:56;100283.28;;;31.04;22.01
35952;BME280;22035;51.406;16.194;2023-04-30T01:43:28;100289.07;;;31.02;22.02
35952;BME280;22035;51.406;16.194;2023-04-30T01:46:06;100290.97;;;30.99;22.07
35952;BME280;22035;51.406;16.194;2023-04-30T01:48:41;100294.06;;;31.02;22.03
35952;BME280;22035;51.406;16.194;2023-04-30T01:51:15;100296.59;;;31.02;22.00
35952;BME280;22035;51.406;16.194;2023-04-30T01:53:44;100300.44;;;31.10;21.91
35952;BME280;22035;51.406;16.194;2023-04-30T01:56:17;100302.87;;;30.94;22.07
35952;BME280;22035;51.406;16.194;2023-04-30T01:58:47;100307.11;;;31.00;21.99
35952;BME280;22035;51.406;16.194;2023-04-30T02:01:25;100309.62;;;30.99;22.01
35952;BME280;22035;51.406;16.194;2023-04-30T02:03:51;100313.20;;;30.98;22.01
35952;BME280;22035;51.406;16.194;2023-04-30T02:06:16;100315.21;;;30.99;22.00
35952;BME280;22035;51.406;16.194;2023-04-30T02:08:42;100312.92;;;30.98;22.03
35952;BME280;22035;51.406;16.194;2023-04-30T02:11:08;100309.24;;;31.00;22.00
35952;BME280;22035;51.406;16.194;2023-04-30T02:13:33;100316.26;;;30.99;22.00
35952;BME280;22035;51.406;16.194;2023-04-30T02:15:59;100323.88;;;31.00;21.99
35952;BME280;22035;51.406;16.194;2023-04-30T02:18:24;100327.76;;;30.97;22.00
35952;BME280;22035;51.406;16.194;2023-04-30T02:20:50;100330.00;;;30.95;22.01
35952;BME280;22035;51.406;16.194;2023-04-30T02:23:16;100331.25;;;30.96;22.01
35952;BME280;22035;51.406;16.194;2023-04-30T02:25:41;100333.70;;;30.93;22.02
35952;BME280;22035;51.406;16.194;2023-04-30T02:28:07;100338.86;;;30.98;21.97
35952;BME280;22035;51.406;16.194;2023-04-30T02:30:32;100341.01;;;30.94;22.00
35952;BME280;22035;51.406;16.194;2023-04-30T02:32:58;100344.47;;;30.97;22.00
35952;BME280;22035;51.406;16.194;2023-04-30T02:35:24;100347.42;;;30.93;22.00
35952;BME280;22035;51.406;16.194;2023-04-30T02:37:49;100348.19;;;30.90;22.01
35952;BME280;22035;51.406;16.194;2023-04-30T02:40:15;100350.13;;;30.93;21.99
35952;BME280;22035;51.406;16.194;2023-04-30T02:42:41;100351.05;;;30.96;21.99
35952;BME280;22035;51.406;16.194;2023-04-30T02:45:07;100348.09;;;30.92;22.01
35952;BME280;22035;51.406;16.194;2023-04-30T02:47:33;100350.46;;;30.92;21.98
35952;BME280;22035;51.406;16.194;2023-04-30T02:49:58;100350.56;;;30.92;21.98
35952;BME280;22035;51.406;16.194;2023-04-30T02:52:24;100350.47;;;30.93;21.92
35952;BME280;22035;51.406;16.194;2023-04-30T02:54:49;100351.32;;;30.90;21.97
35952;BME280;22035;51.406;16.194;2023-04-30T02:57:15;100358.07;;;30.96;21.88
35952;BME280;22035;51.406;16.194;2023-04-30T02:59:41;100358.59;;;30.96;21.89
35952;BME280;22035;51.406;16.194;2023-04-30T03:02:06;100359.37;;;30.89;21.95
35952;BME280;22035;51.406;16.194;2023-04-30T03:04:32;100361.93;;;30.94;21.86
35952;BME280;22035;51.406;16.194;2023-04-30T03:06:57;100360.67;;;30.92;21.87
35952;BME280;22035;51.406;16.194;2023-04-30T03:09:23;100363.37;;;30.94;21.88
35952;BME280;22035;51.406;16.194;2023-04-30T03:11:49;100367.04;;;30.87;21.94
35952;BME280;22035;51.406;16.194;2023-04-30T03:14:14;100374.99;;;30.93;21.88
35952;BME280;22035;51.406;16.194;2023-04-30T03:16:40;100372.51;;;30.88;21.94
35952;BME280;22035;51.406;16.194;2023-04-30T03:19:06;100371.83;;;30.90;21.88
35952;BME280;22035;51.406;16.194;2023-04-30T03:21:31;100376.32;;;30.91;21.88
35952;BME280;22035;51.406;16.194;2023-04-30T03:23:57;100375.92;;;30.89;21.89
35952;BME280;22035;51.406;16.194;2023-04-30T03:26:22;100378.22;;;30.93;21.86
35952;BME280;22035;51.406;16.194;2023-04-30T03:28:48;100378.23;;;30.84;21.91
35952;BME280;22035;51.406;16.194;2023-04-30T03:31:14;100379.11;;;30.84;21.92
35952;BME280;22035;51.406;16.194;2023-04-30T03:33:39;100380.78;;;30.85;21.92
35952;BME280;22035;51.406;16.194;2023-04-30T03:36:05;100388.55;;;30.82;21.93
35952;BME280;22035;51.406;16.194;2023-04-30T03:38:31;100393.92;;;30.87;21.90
35952;BME280;22035;51.406;16.194;2023-04-30T03:40:56;100396.04;;;30.88;21.86
35952;BME280;22035;51.406;16.194;2023-04-30T03:43:22;100404.45;;;30.88;21.88
35952;BME280;22035;51.406;16.194;2023-04-30T03:45:48;100405.55;;;30.87;21.85
35952;BME280;22035;51.406;16.194;2023-04-30T03:48:13;100405.09;;;30.85;21.89
35952;BME280;22035;51.406;16.194;2023-04-30T03:50:39;100404.88;;;30.86;21.86
35952;BME280;22035;51.406;16.194;2023-04-30T03:53:04;100409.17;;;30.86;21.82
35952;BME280;22035;51.406;16.194;2023-04-30T03:55:31;100411.21;;;30.85;21.86
35952;BME280;22035;51.406;16.194;2023-04-30T03:57:57;100415.80;;;30.84;21.85
35952;BME280;22035;51.406;16.194;2023-04-30T04:00:22;100417.42;;;30.88;21.77
35952;BME280;22035;51.406;16.194;2023-04-30T04:02:48;100420.11;;;30.88;21.80
35952;BME280;22035;51.406;16.194;2023-04-30T04:05:14;100422.15;;;30.92;21.73
35952;BME280;22035;51.406;16.194;2023-04-30T04:07:40;100424.80;;;30.95;21.72
35952;BME280;22035;51.406;16.194;2023-04-30T04:10:06;100428.55;;;30.92;21.71
35952;BME280;22035;51.406;16.194;2023-04-30T04:12:32;100428.51;;;30.84;21.79
35952;BME280;22035;51.406;16.194;2023-04-30T04:14:57;100432.63;;;30.87;21.75
35952;BME280;22035;51.406;16.194;2023-04-30T04:17:23;100436.38;;;30.91;21.75
35952;BME280;22035;51.406;16.194;2023-04-30T04:19:49;100437.59;;;30.88;21.77
35952;BME280;22035;51.406;16.194;2023-04-30T04:22:14;100443.72;;;30.86;21.77
35952;BME280;22035;51.406;16.194;2023-04-30T04:24:40;100442.13;;;30.90;21.70
35952;BME280;22035;51.406;16.194;2023-04-30T04:27:06;100447.03;;;30.92;21.67
35952;BME280;22035;51.406;16.194;2023-04-30T04:29:31;100451.39;;;30.90;21.67
35952;BME280;22035;51.406;16.194;2023-04-30T04:31:57;100454.37;;;30.93;21.65
35952;BME280;22035;51.406;16.194;2023-04-30T04:34:22;100457.94;;;30.88;21.69
35952;BME280;22035;51.406;16.194;2023-04-30T04:36:48;100460.72;;;30.96;21.61
35952;BME280;22035;51.406;16.194;2023-04-30T04:39:14;100462.88;;;30.95;21.60
35952;BME280;22035;51.406;16.194;2023-04-30T04:41:39;100464.94;;;30.80;21.73
35952;BME280;22035;51.406;16.194;2023-04-30T04:44:05;100467.40;;;30.88;21.75
35952;BME280;22035;51.406;16.194;2023-04-30T04:46:31;100471.46;;;30.84;21.68
35952;BME280;22035;51.406;16.194;2023-04-30T04:48:57;100476.02;;;30.80;21.78
35952;BME280;22035;51.406;16.194;2023-04-30T04:51:22;100477.18;;;30.85;21.65
35952;BME280;22035;51.406;16.194;2023-04-30T04:53:48;100482.25;;;30.83;21.68
35952;BME280;22035;51.406;16.194;2023-04-30T04:56:14;100485.04;;;30.88;21.58
35952;BME280;22035;51.406;16.194;2023-04-30T04:58:40;100486.63;;;30.89;21.56
35952;BME280;22035;51.406;16.194;2023-04-30T05:01:06;100489.23;;;30.77;21.73
35952;BME280;22035;51.406;16.194;2023-04-30T05:03:33;100494.35;;;30.87;21.55
35952;BME280;22035;51.406;16.194;2023-04-30T05:05:59;100494.34;;;30.93;21.44
35952;BME280;22035;51.406;16.194;2023-04-30T05:08:24;100498.40;;;30.97;21.41
35952;BME280;22035;51.406;16.194;2023-04-30T05:10:50;100502.26;;;30.96;21.41
35952;BME280;22035;51.406;16.194;2023-04-30T05:13:16;100506.07;;;31.03;21.38
35952;BME280;22035;51.406;16.194;2023-04-30T05:15:41;100509.52;;;31.04;21.34
35952;BME280;22035;51.406;16.194;2023-04-30T05:18:07;100512.15;;;31.11;21.25
35952;BME280;22035;51.406;16.194;2023-04-30T05:20:33;100510.09;;;31.13;21.24
35952;BME280;22035;51.406;16.194;2023-04-30T05:22:59;100516.83;;;31.19;21.25
35952;BME280;22035;51.406;16.194;2023-04-30T05:25:24;100523.68;;;31.14;21.26
35952;BME280;22035;51.406;16.194;2023-04-30T05:27:50;100525.18;;;31.31;21.16
35952;BME280;22035;51.406;16.194;2023-04-30T05:30:15;100525.79;;;31.11;21.28
35952;BME280;22035;51.406;16.194;2023-04-30T05:32:41;100531.60;;;31.24;21.16
35952;BME280;22035;51.406;16.194;2023-04-30T05:35:08;100535.56;;;31.18;21.29
35952;BME280;22035;51.406;16.194;2023-04-30T05:37:33;100533.47;;;31.17;21.25
35952;BME280;22035;51.406;16.194;2023-04-30T05:39:59;100533.46;;;31.23;21.25
35952;BME280;22035;51.406;16.194;2023-04-30T05:42:25;100537.85;;;31.28;21.23
35952;BME280;22035;51.406;16.194;2023-04-30T05:44:51;100538.74;;;31.22;21.24
35952;BME280;22035;51.406;16.194;2023-04-30T05:47:16;100539.74;;;31.36;21.09
35952;BME280;22035;51.406;16.194;2023-04-30T05:49:42;100540.58;;;31.31;21.17
35952;BME280;22035;51.406;16.194;2023-04-30T05:52:08;100543.81;;;31.20;21.27
35952;BME280;22035;51.406;16.194;2023-04-30T05:54:33;100549.34;;;31.30;21.23
35952;BME280;22035;51.406;16.194;2023-04-30T05:56:59;100550.26;;;31.35;21.18
35952;BME280;22035;51.406;16.194;2023-04-30T05:59:24;100550.59;;;31.52;21.04
35952;BME280;22035;51.406;16.194;2023-04-30T06:01:50;100550.98;;;31.43;21.12
35952;BME280;22035;51.406;16.194;2023-04-30T06:04:16;100549.48;;;31.51;21.03
35952;BME280;22035;51.406;16.194;2023-04-30T06:06:42;100546.51;;;31.54;20.99
35952;BME280;22035;51.406;16.194;2023-04-30T06:09:07;100549.99;;;31.49;21.05
35952;BME280;22035;51.406;16.194;2023-04-30T06:11:33;100555.58;;;31.53;21.05
35952;BME280;22035;51.406;16.194;2023-04-30T06:13:59;100561.98;;;31.60;21.04
35952;BME280;22035;51.406;16.194;2023-04-30T06:16:25;100564.19;;;31.60;21.07
35952;BME280;22035;51.406;16.194;2023-04-30T06:18:51;100562.78;;;31.58;20.96
35952;BME280;22035;51.406;16.194;2023-04-30T06:21:16;100561.96;;;31.60;21.05
35952;BME280;22035;51.406;16.194;2023-04-30T06:23:42;100565.40;;;31.59;21.04
35952;BME280;22035;51.406;16.194;2023-04-30T06:26:07;100565.21;;;31.60;21.12
35952;BME280;22035;51.406;16.194;2023-04-30T06:28:33;100566.09;;;31.55;21.07
35952;BME280;22035;51.406;16.194;2023-04-30T06:30:59;100565.07;;;31.67;21.06
35952;BME280;22035;51.406;16.194;2023-04-30T06:33:24;100567.25;;;31.63;21.06
35952;BME280;22035;51.406;16.194;2023-04-30T06:35:50;100565.30;;;31.64;21.00
35952;BME280;22035;51.406;16.194;2023-04-30T06:38:16;100566.63;;;31.62;21.04
35952;BME280;22035;51.406;16.194;2023-04-30T06:40:41;100566.31;;;31.63;21.00
35952;BME280;22035;51.406;16.194;2023-04-30T06:43:07;100567.43;;;31.62;21.03
35952;BME280;22035;51.406;16.194;2023-04-30T06:45:33;100566.75;;;31.62;21.04
35952;BME280;22035;51.406;16.194;2023-04-30T06:47:58;100562.01;;;31.63;21.08
35952;BME280;22035;51.406;16.194;2023-04-30T06:50:24;100566.50;;;31.63;21.04
35952;BME280;22035;51.406;16.194;2023-04-30T06:52:49;100571.35;;;31.62;21.01
35952;BME280;22035;51.406;16.194;2023-04-30T06:55:15;100571.64;;;31.64;20.90
35952;BME280;22035;51.406;16.194;2023-04-30T06:57:41;100571.78;;;31.66;20.94
35952;BME280;22035;51.406;16.194;2023-04-30T07:00:07;100572.53;;;31.68;20.91
35952;BME280;22035;51.406;16.194;2023-04-30T07:02:33;100575.54;;;31.64;20.91
35952;BME280;22035;51.406;16.194;2023-04-30T07:04:58;100573.36;;;31.62;20.95
35952;BME280;22035;51.406;16.194;2023-04-30T07:07:24;100573.83;;;31.63;20.94
35952;BME280;22035;51.406;16.194;2023-04-30T07:09:50;100576.40;;;31.64;20.91
35952;BME280;22035;51.406;16.194;2023-04-30T07:12:15;100573.53;;;31.64;20.89
35952;BME280;22035;51.406;16.194;2023-04-30T07:14:41;100574.06;;;31.66;20.91
35952;BME280;22035;51.406;16.194;2023-04-30T07:17:07;100569.63;;;31.65;20.82
35952;BME280;22035;51.406;16.194;2023-04-30T07:19:32;100575.53;;;31.64;20.90
35952;BME280;22035;51.406;16.194;2023-04-30T07:21:58;100576.85;;;31.68;20.84
35952;BME280;22035;51.406;16.194;2023-04-30T07:24:24;100575.82;;;31.67;20.82
35952;BME280;22035;51.406;16.194;2023-04-30T07:26:49;100571.23;;;31.67;20.80
35952;BME280;22035;51.406;16.194;2023-04-30T07:29:15;100568.83;;;31.69;20.81
35952;BME280;22035;51.406;16.194;2023-04-30T07:31:40;100571.20;;;31.67;20.74
35952;BME280;22035;51.406;16.194;2023-04-30T07:34:06;100573.89;;;31.69;20.85
35952;BME280;22035;51.406;16.194;2023-04-30T07:36:32;100572.56;;;31.69;20.71
35952;BME280;22035;51.406;16.194;2023-04-30T07:38:57;100574.21;;;31.70;20.68
35952;BME280;22035;51.406;16.194;2023-04-30T07:41:23;100574.02;;;31.68;20.82
35952;BME280;22035;51.406;16.194;2023-04-30T07:43:49;100573.64;;;31.70;20.69
35952;BME280;22035;51.406;16.194;2023-04-30T07:46:15;100574.38;;;31.68;20.73
35952;BME280;22035;51.406;16.194;2023-04-30T07:48:41;100577.25;;;31.69;20.65
35952;BME280;22035;51.406;16.194;2023-04-30T07:51:06;100578.74;;;31.69;20.68
35952;BME280;22035;51.406;16.194;2023-04-30T07:53:32;100579.54;;;31.65;20.66
35952;BME280;22035;51.406;16.194;2023-04-30T07:55:57;100582.10;;;31.67;20.68
35952;BME280;22035;51.406;16.194;2023-04-30T07:58:23;100588.72;;;31.68;20.63
35952;BME280;22035;51.406;16.194;2023-04-30T08:00:49;100591.43;;;31.64;20.62
35952;BME280;22035;51.406;16.194;2023-04-30T08:03:14;100591.62;;;31.71;20.54
35952;BME280;22035;51.406;16.194;2023-04-30T08:05:40;100590.03;;;31.71;20.53
35952;BME280;22035;51.406;16.194;2023-04-30T08:08:06;100591.80;;;31.76;20.45
35952;BME280;22035;51.406;16.194;2023-04-30T08:10:31;100595.82;;;31.70;20.55
35952;BME280;22035;51.406;16.194;2023-04-30T08:12:57;100596.26;;;31.74;20.51
35952;BME280;22035;51.406;16.194;2023-04-30T08:15:23;100594.28;;;31.70;20.53
35952;BME280;22035;51.406;16.194;2023-04-30T08:17:49;100593.51;;;31.74;20.42
35952;BME280;22035;51.406;16.194;2023-04-30T08:20:15;100598.70;;;31.71;20.54
35952;BME280;22035;51.406;16.194;2023-04-30T08:22:41;100597.15;;;31.72;20.46
35952;BME280;22035;51.406;16.194;2023-04-30T08:25:09;100594.52;;;31.68;20.53
35952;BME280;22035;51.406;16.194;2023-04-30T08:27:35;100594.67;;;31.71;20.44
35952;BME280;22035;51.406;16.194;2023-04-30T08:30:01;100599.06;;;31.72;20.42
35952;BME280;22035;51.406;16.194;2023-04-30T08:32:26;100595.22;;;31.67;20.47
35952;BME280;22035;51.406;16.194;2023-04-30T08:34:53;100594.90;;;31.67;20.41
35952;BME280;22035;51.406;16.194;2023-04-30T08:37:18;100602.00;;;31.72;20.31
35952;BME280;22035;51.406;16.194;2023-04-30T08:39:44;100600.37;;;31.62;20.42
35952;BME280;22035;51.406;16.194;2023-04-30T08:42:13;100603.14;;;31.57;20.47
35952;BME280;22035;51.406;16.194;2023-04-30T08:44:38;100603.96;;;31.56;20.40
35952;BME280;22035;51.406;16.194;2023-04-30T08:47:05;100596.06;;;31.51;20.47
35952;BME280;22035;51.406;16.194;2023-04-30T08:49:31;100611.03;;;31.47;20.43
35952;BME280;22035;51.406;16.194;2023-04-30T08:51:57;100611.29;;;31.49;20.56
35952;BME280;22035;51.406;16.194;2023-04-30T08:54:25;100610.57;;;31.42;20.54
35952;BME280;22035;51.406;16.194;2023-04-30T08:56:52;100612.18;;;31.28;20.66
35952;BME280;22035;51.406;16.194;2023-04-30T08:59:18;100610.64;;;31.23;20.64
35952;BME280;22035;51.406;16.194;2023-04-30T09:01:44;100617.64;;;31.31;20.51
35952;BME280;22035;51.406;16.194;2023-04-30T09:04:09;100613.71;;;31.10;20.69
35952;BME280;22035;51.406;16.194;2023-04-30T09:06:35;100615.40;;;31.09;20.66
35952;BME280;22035;51.406;16.194;2023-04-30T09:09:08;100612.46;;;31.16;20.66
35952;BME280;22035;51.406;16.194;2023-04-30T09:11:34;100614.60;;;31.26;20.44
35952;BME280;22035;51.406;16.194;2023-04-30T09:14:00;100611.33;;;31.22;20.52
35952;BME280;22035;51.406;16.194;2023-04-30T09:16:28;100609.93;;;31.24;20.53
35952;BME280;22035;51.406;16.194;2023-04-30T09:18:54;100611.69;;;31.12;20.61
35952;BME280;22035;51.406;16.194;2023-04-30T09:21:30;100612.98;;;31.23;20.51
35952;BME280;22035;51.406;16.194;2023-04-30T09:23:57;100610.99;;;31.27;20.43
35952;BME280;22035;51.406;16.194;2023-04-30T09:26:31;100607.57;;;31.19;20.47
35952;BME280;22035;51.406;16.194;2023-04-30T09:28:58;100612.95;;;31.17;20.43
35952;BME280;22035;51.406;16.194;2023-04-30T09:31:24;100609.16;;;31.18;20.41
35952;BME280;22035;51.406;16.194;2023-04-30T09:33:50;100611.18;;;31.22;20.40
35952;BME280;22035;51.406;16.194;2023-04-30T09:36:16;100612.31;;;31.23;20.44
35952;BME280;22035;51.406;16.194;2023-04-30T09:38:42;100614.13;;;31.11;20.52
35952;BME280;22035;51.406;16.194;2023-04-30T09:41:20;100609.01;;;31.22;20.39
35952;BME280;22035;51.406;16.194;2023-04-30T09:43:46;100605.71;;;31.11;20.52
35952;BME280;22035;51.406;16.194;2023-04-30T09:46:12;100602.17;;;31.08;20.51
35952;BME280;22035;51.406;16.194;2023-04-30T09:48:40;100603.70;;;31.16;20.38
35952;BME280;22035;51.406;16.194;2023-04-30T09:51:06;100607.59;;;31.14;20.41
35952;BME280;22035;51.406;16.194;2023-04-30T09:53:32;100607.14;;;31.17;20.42
35952;BME280;22035;51.406;16.194;2023-04-30T09:55:59;100608.39;;;31.23;20.28
35952;BME280;22035;51.406;16.194;2023-04-30T09:58:27;100606.21;;;31.15;20.38
35952;BME280;22035;51.406;16.194;2023-04-30T10:00:54;100600.58;;;31.12;20.37
35952;BME280;22035;51.406;16.194;2023-04-30T10:03:22;100599.72;;;31.24;20.25
35952;BME280;22035;51.406;16.194;2023-04-30T10:05:49;100604.10;;;31.11;20.38
35952;BME280;22035;51.406;16.194;2023-04-30T10:08:20;100600.21;;;31.18;20.26
35952;BME280;22035;51.406;16.194;2023-04-30T10:10:49;100597.76;;;31.13;20.36
35952;BME280;22035;51.406;16.194;2023-04-30T10:13:18;100594.13;;;31.13;20.31
35952;BME280;22035;51.406;16.194;2023-04-30T10:15:50;100595.43;;;31.12;20.40
35952;BME280;22035;51.406;16.194;2023-04-30T10:18:19;100599.88;;;31.00;20.43
35952;BME280;22035;51.406;16.194;2023-04-30T10:20:47;100594.08;;;31.16;20.22
35952;BME280;22035;51.406;16.194;2023-04-30T10:23:15;100593.98;;;31.07;20.30
35952;BME280;22035;51.406;16.194;2023-04-30T10:25:42;100595.74;;;31.10;20.26
35952;BME280;22035;51.406;16.194;2023-04-30T10:28:09;100595.05;;;31.05;20.38
35952;BME280;22035;51.406;16.194;2023-04-30T10:30:35;100590.83;;;31.03;20.33
35952;BME280;22035;51.406;16.194;2023-04-30T10:33:14;100583.09;;;31.01;20.33
35952;BME280;22035;51.406;16.194;2023-04-30T10:35:47;100583.95;;;31.00;20.37
35952;BME280;22035;51.406;16.194;2023-04-30T10:38:20;100586.12;;;31.08;20.30
35952;BME280;22035;51.406;16.194;2023-04-30T10:40:45;100591.17;;;30.92;20.48
35952;BME280;22035;51.406;16.194;2023-04-30T10:43:11;100586.06;;;31.00;20.31
35952;BME280;22035;51.406;16.194;2023-04-30T10:45:38;100582.40;;;31.09;20.31
35952;BME280;22035;51.406;16.194;2023-04-30T10:48:06;100576.88;;;30.98;20.39
35952;BME280;22035;51.406;16.194;2023-04-30T10:50:32;100574.04;;;30.95;20.42
35952;BME280;22035;51.406;16.194;2023-04-30T10:53:01;100576.57;;;31.02;20.27
35952;BME280;22035;51.406;16.194;2023-04-30T10:55:28;100574.80;;;31.05;20.27
35952;BME280;22035;51.406;16.194;2023-04-30T10:57:54;100578.75;;;31.14;20.19
35952;BME280;22035;51.406;16.194;2023-04-30T11:00:25;100573.08;;;31.03;20.26
35952;BME280;22035;51.406;16.194;2023-04-30T11:02:55;100569.97;;;31.11;20.21
35952;BME280;22035;51.406;16.194;2023-04-30T11:05:34;100568.87;;;31.07;20.28
35952;BME280;22035;51.406;16.194;2023-04-30T11:08:00;100572.40;;;31.06;20.30
35952;BME280;22035;51.406;16.194;2023-04-30T11:10:31;100572.00;;;31.17;20.16
35952;BME280;22035;51.406;16.194;2023-04-30T11:12:57;100575.21;;;31.07;20.25
35952;BME280;22035;51.406;16.194;2023-04-30T11:15:24;100578.68;;;31.08;20.22
35952;BME280;22035;51.406;16.194;2023-04-30T11:17:50;100580.11;;;31.01;20.31
35952;BME280;22035;51.406;16.194;2023-04-30T11:20:22;100580.14;;;31.02;20.33
35952;BME280;22035;51.406;16.194;2023-04-30T11:23:07;100577.20;;;31.01;20.33
35952;BME280;22035;51.406;16.194;2023-04-30T11:25:39;100579.00;;;31.00;20.33
35952;BME280;22035;51.406;16.194;2023-04-30T11:28:05;100577.28;;;30.96;20.40
35952;BME280;22035;51.406;16.194;2023-04-30T11:30:31;100574.21;;;31.13;20.24
35952;BME280;22035;51.406;16.194;2023-04-30T11:32:58;100574.85;;;31.08;20.24
35952;BME280;22035;51.406;16.194;2023-04-30T11:35:25;100571.44;;;31.11;20.23
35952;BME280;22035;51.406;16.194;2023-04-30T11:37:54;100565.44;;;31.04;20.26
35952;BME280;22035;51.406;16.194;2023-04-30T11:40:21;100564.80;;;31.04;20.26
35952;BME280;22035;51.406;16.194;2023-04-30T11:42:46;100568.18;;;31.08;20.26
35952;BME280;22035;51.406;16.194;2023-04-30T11:45:13;100565.17;;;31.08;20.23
35952;BME280;22035;51.406;16.194;2023-04-30T11:47:41;100561.99;;;30.99;20.34
35952;BME280;22035;51.406;16.194;2023-04-30T11:50:07;100562.61;;;31.02;20.29
35952;BME280;22035;51.406;16.194;2023-04-30T11:52:34;100557.04;;;31.04;20.33
35952;BME280;22035;51.406;16.194;2023-04-30T11:54:59;100550.95;;;31.07;20.23
35952;BME280;22035;51.406;16.194;2023-04-30T11:57:25;100555.29;;;31.00;20.31
35952;BME280;22035;51.406;16.194;2023-04-30T11:59:51;100553.31;;;31.05;20.24
35952;BME280;22035;51.406;16.194;2023-04-30T12:02:16;100559.64;;;31.09;20.21
35952;BME280;22035;51.406;16.194;2023-04-30T12:04:42;100565.73;;;31.04;20.25
35952;BME280;22035;51.406;16.194;2023-04-30T12:07:08;100557.86;;;31.07;20.23
35952;BME280;22035;51.406;16.194;2023-04-30T12:09:50;100557.86;;;31.09;20.14
35952;BME280;22035;51.406;16.194;2023-04-30T12:12:25;100555.24;;;31.02;20.24
35952;BME280;22035;51.406;16.194;2023-04-30T12:14:51;100558.77;;;31.07;20.19
35952;BME280;22035;51.406;16.194;2023-04-30T12:17:29;100558.65;;;31.11;20.17
35952;BME280;22035;51.406;16.194;2023-04-30T12:19:55;100563.55;;;31.07;20.19
35952;BME280;22035;51.406;16.194;2023-04-30T12:22:20;100557.23;;;31.19;20.04
35952;BME280;22035;51.406;16.194;2023-04-30T12:24:46;100560.42;;;31.10;20.20
35952;BME280;22035;51.406;16.194;2023-04-30T12:27:13;100561.23;;;31.09;20.22
35952;BME280;22035;51.406;16.194;2023-04-30T12:29:42;100555.30;;;31.09;20.26
35952;BME280;22035;51.406;16.194;2023-04-30T12:32:08;100548.73;;;31.10;20.16
35952;BME280;22035;51.406;16.194;2023-04-30T12:34:37;100548.88;;;31.10;20.15
35952;BME280;22035;51.406;16.194;2023-04-30T12:37:02;100549.60;;;31.03;20.23
35952;BME280;22035;51.406;16.194;2023-04-30T12:39:32;100549.23;;;31.19;20.06